Time;durP1;ratioP1;P1;durP2;ratioP2;P2;SDS_P1;SDS_P2;PMS_P1;PMS_P2;Temp;Humidity;BMP_temperature;BMP_pressure;BME280_temperature;BME280_humidity;BME280_pressure;Samples;Min_cycle;Max_cycle;Signal;HPM_P1;HPM_P2
2022/03/03 00:00:22;;;;;;;37.33;18.80;;;0.10;92.30;;;;;;4977015;28;20035;-62
2022/03/03 00:02:48;;;;;;;39.80;18.05;;;0.00;91.80;;;;;;4976811;28;20073;-62
2022/03/03 00:05:14;;;;;;;36.20;17.95;;;-0.10;90.80;;;;;;4983675;28;20042;-62
2022/03/03 00:07:40;;;;;;;31.65;15.93;;;-0.20;90.30;;;;;;4978050;28;20097;-62
2022/03/03 00:10:08;;;;;;;29.13;14.27;;;-0.20;89.90;;;;;;4977649;28;20030;-63
2022/03/03 00:12:34;;;;;;;32.47;16.65;;;-0.30;89.60;;;;;;4974574;28;20606;-62
2022/03/03 00:15:00;;;;;;;32.33;15.32;;;-0.30;89.80;;;;;;4981296;28;20960;-62
2022/03/03 00:17:25;;;;;;;34.85;16.48;;;-0.30;90.50;;;;;;4980459;28;20030;-63
2022/03/03 00:19:51;;;;;;;34.88;17.45;;;-0.30;90.90;;;;;;4978302;28;20845;-62
2022/03/03 00:22:17;;;;;;;36.97;16.60;;;-0.30;90.50;;;;;;4977208;28;20030;-63
2022/03/03 00:24:43;;;;;;;34.08;16.10;;;-0.30;90.00;;;;;;4976707;28;20490;-62
2022/03/03 00:27:09;;;;;;;28.40;15.13;;;-0.40;89.00;;;;;;4981007;28;20034;-63
2022/03/03 00:29:35;;;;;;;32.55;15.18;;;-0.40;88.50;;;;;;4978669;28;20501;-63
2022/03/03 00:32:01;;;;;;;29.25;14.95;;;-0.40;88.10;;;;;;4976375;28;20137;-63
2022/03/03 00:34:27;;;;;;;35.17;15.38;;;-0.40;87.70;;;;;;4973923;28;20026;-63
2022/03/03 00:36:53;;;;;;;33.83;15.55;;;-0.50;88.20;;;;;;4979072;28;20533;-63
2022/03/03 00:39:18;;;;;;;34.10;15.80;;;-0.50;88.30;;;;;;4981171;28;20023;-62
2022/03/03 00:41:44;;;;;;;35.03;16.58;;;-0.50;89.30;;;;;;4975677;28;20837;-62
2022/03/03 00:44:10;;;;;;;33.13;16.17;;;-0.50;89.40;;;;;;4976357;28;20022;-62
2022/03/03 00:46:36;;;;;;;34.72;15.50;;;-0.60;90.00;;;;;;4974846;28;20743;-62
2022/03/03 00:49:03;;;;;;;33.28;15.05;;;-0.60;90.30;;;;;;4980153;28;20050;-62
2022/03/03 00:51:29;;;;;;;34.55;16.75;;;-0.70;90.40;;;;;;4978791;28;20502;-62
2022/03/03 00:53:55;;;;;;;36.63;16.73;;;-0.70;90.60;;;;;;4975159;28;20070;-62
2022/03/03 00:56:21;;;;;;;37.15;18.13;;;-0.70;90.60;;;;;;4975760;28;20070;-62
2022/03/03 00:58:48;;;;;;;37.35;17.15;;;-0.60;90.70;;;;;;4980367;28;20042;-63
2022/03/03 01:01:14;;;;;;;44.45;17.67;;;-0.60;90.70;;;;;;4981620;28;20030;-62
2022/03/03 01:03:40;;;;;;;41.42;16.73;;;-0.60;90.80;;;;;;4977527;28;20827;-63
2022/03/03 01:06:07;;;;;;;34.60;16.92;;;-0.60;91.10;;;;;;4975343;28;20049;-63
2022/03/03 01:08:33;;;;;;;40.17;17.95;;;-0.60;91.40;;;;;;4977922;28;20800;-63
2022/03/03 01:10:58;;;;;;;37.60;16.95;;;-0.60;91.50;;;;;;4982719;28;20042;-63
2022/03/03 01:13:24;;;;;;;38.05;16.55;;;-0.60;91.70;;;;;;4978409;28;20414;-63
2022/03/03 01:15:50;;;;;;;37.60;16.65;;;-0.50;92.00;;;;;;4976326;28;20715;-63
2022/03/03 01:18:17;;;;;;;34.45;17.67;;;-0.50;92.20;;;;;;4975300;28;20848;-63
2022/03/03 01:20:42;;;;;;;37.53;18.35;;;-0.50;92.20;;;;;;4980389;28;20558;-65
2022/03/03 01:23:08;;;;;;;37.92;17.88;;;-0.50;92.00;;;;;;4981646;28;20088;-63
2022/03/03 01:25:34;;;;;;;36.83;16.55;;;-0.50;91.90;;;;;;4979737;28;20105;-64
2022/03/03 01:28:00;;;;;;;40.88;18.63;;;-0.50;91.90;;;;;;4974752;28;20053;-63
2022/03/03 01:30:26;;;;;;;32.72;16.67;;;-0.40;91.60;;;;;;4977793;28;20450;-63
2022/03/03 01:32:52;;;;;;;38.67;17.33;;;-0.40;91.50;;;;;;4978653;28;20034;-62
2022/03/03 01:35:17;;;;;;;38.83;17.92;;;-0.40;91.40;;;;;;4977894;28;20493;-63
2022/03/03 01:37:43;;;;;;;36.55;16.50;;;-0.40;90.90;;;;;;4975979;28;20034;-63
2022/03/03 01:40:10;;;;;;;38.03;17.00;;;-0.50;90.60;;;;;;4957525;28;20023;-63
2022/03/03 01:42:36;;;;;;;35.00;16.17;;;-0.60;90.60;;;;;;4980276;28;20042;-62
2022/03/03 01:45:03;;;;;;;40.95;16.92;;;-0.60;90.80;;;;;;4976774;28;20050;-63
2022/03/03 01:47:28;;;;;;;39.40;16.00;;;-0.60;90.70;;;;;;4975238;28;20041;-63
2022/03/03 01:49:56;;;;;;;38.10;16.17;;;-0.70;90.50;;;;;;4970716;28;20042;-62
2022/03/03 01:52:23;;;;;;;30.75;15.70;;;-0.70;90.70;;;;;;4975389;28;20030;-63
2022/03/03 01:54:49;;;;;;;35.65;16.48;;;-0.80;90.80;;;;;;4976383;28;20030;-62
2022/03/03 01:57:19;;;;;;;38.03;17.08;;;-0.80;91.00;;;;;;4975211;28;20577;-63
2022/03/03 01:59:45;;;;;;;34.70;16.10;;;-0.70;91.10;;;;;;4971909;28;20105;-63
2022/03/03 02:02:11;;;;;;;35.33;15.40;;;-0.70;91.10;;;;;;4977525;28;20804;-63
2022/03/03 02:04:38;;;;;;;35.97;15.68;;;-0.70;91.50;;;;;;4979428;28;20042;-62
2022/03/03 02:07:05;;;;;;;39.80;16.73;;;-0.70;91.60;;;;;;4976580;28;20031;-63
2022/03/03 02:09:31;;;;;;;34.20;17.02;;;-0.60;92.00;;;;;;4974237;28;20039;-62
2022/03/03 02:11:56;;;;;;;32.75;15.30;;;-0.50;92.00;;;;;;4972531;28;20086;-63
2022/03/03 02:14:22;;;;;;;33.85;16.65;;;-0.50;91.80;;;;;;4980000;28;20685;-63
2022/03/03 02:16:48;;;;;;;41.70;17.77;;;-0.40;91.50;;;;;;4978530;28;20034;-63
2022/03/03 02:19:17;;;;;;;40.47;17.02;;;-0.40;91.20;;;;;;4976507;28;20044;-63
2022/03/03 02:21:48;;;;;;;31.17;15.93;;;-0.40;90.90;;;;;;4971549;28;20118;-63
2022/03/03 02:24:14;;;;;;;33.65;15.18;;;-0.40;90.90;;;;;;4978675;28;20054;-63
2022/03/03 02:26:41;;;;;;;37.72;16.73;;;-0.30;90.90;;;;;;4978741;28;20522;-63
2022/03/03 02:29:07;;;;;;;28.30;14.93;;;-0.30;90.90;;;;;;4979914;28;20042;-62
2022/03/03 02:31:33;;;;;;;33.85;15.18;;;-0.40;90.90;;;;;;4974583;28;20043;-65
2022/03/03 02:33:59;;;;;;;32.92;15.85;;;-0.40;91.10;;;;;;4972568;28;20039;-62
2022/03/03 02:36:27;;;;;;;36.00;16.58;;;-0.40;91.60;;;;;;4979526;28;20518;-62
2022/03/03 02:38:55;;;;;;;30.15;15.00;;;-0.50;91.80;;;;;;4978306;28;20484;-63
2022/03/03 02:41:23;;;;;;;31.10;16.10;;;-0.50;91.60;;;;;;4976455;28;20038;-62
2022/03/03 02:43:49;;;;;;;31.73;15.80;;;-0.50;91.60;;;;;;4972163;28;20038;-62
2022/03/03 02:46:15;;;;;;;33.38;16.20;;;-0.50;91.50;;;;;;4977240;28;20076;-63
2022/03/03 02:48:40;;;;;;;30.75;16.15;;;-0.50;91.70;;;;;;4978016;28;20550;-62
2022/03/03 02:51:07;;;;;;;30.38;14.73;;;-0.50;92.00;;;;;;4976631;28;20022;-62
2022/03/03 02:53:34;;;;;;;31.67;15.90;;;-0.30;91.90;;;;;;4973038;28;20034;-63
2022/03/03 02:55:59;;;;;;;32.58;16.77;;;-0.20;91.90;;;;;;4971511;28;20065;-62
2022/03/03 02:58:25;;;;;;;34.80;17.05;;;-0.10;91.10;;;;;;4981584;28;20640;-62
2022/03/03 03:00:52;;;;;;;36.85;17.20;;;-0.10;90.00;;;;;;4979588;28;20109;-63
2022/03/03 03:03:19;;;;;;;38.90;17.23;;;-0.10;88.80;;;;;;4979217;28;20041;-63
2022/03/03 03:05:46;;;;;;;37.30;16.52;;;0.00;88.30;;;;;;4973451;28;20062;-63
2022/03/03 03:08:11;;;;;;;42.50;18.60;;;0.00;88.10;;;;;;4979919;28;20034;-63
2022/03/03 03:10:38;;;;;;;38.03;17.45;;;0.00;87.20;;;;;;4982097;28;20038;-63
2022/03/03 03:13:05;;;;;;;42.17;18.15;;;0.00;87.10;;;;;;4979878;28;20049;-63
2022/03/03 03:15:31;;;;;;;37.95;17.27;;;0.00;87.30;;;;;;4976491;28;20042;-63
2022/03/03 03:18:08;;;;;;;39.60;18.42;;;-0.10;87.00;;;;;;4974832;28;20042;-63
2022/03/03 03:20:34;;;;;;;40.05;17.92;;;-0.10;87.30;;;;;;4983044;28;20060;-63
2022/03/03 03:23:00;;;;;;;52.42;19.15;;;-0.20;88.00;;;;;;4979808;28;20042;-63
2022/03/03 03:25:26;;;;;;;38.20;17.25;;;-0.20;88.00;;;;;;4966844;28;20070;-63
2022/03/03 03:27:51;;;;;;;38.85;16.83;;;-0.30;88.70;;;;;;4974989;28;20563;-63
2022/03/03 03:30:17;;;;;;;34.00;17.00;;;-0.20;89.10;;;;;;4982999;28;20039;-63
2022/03/03 03:32:43;;;;;;;33.10;15.93;;;-0.20;89.60;;;;;;4980254;28;20092;-63
2022/03/03 03:35:09;;;;;;;35.28;17.90;;;-0.30;89.90;;;;;;4976037;28;20060;-63
2022/03/03 03:37:38;;;;;;;39.15;16.63;;;-0.30;90.10;;;;;;4977418;28;20022;-63
2022/03/03 03:40:07;;;;;;;29.45;14.90;;;-0.40;90.30;;;;;;4980402;28;20487;-63
2022/03/03 03:42:33;;;;;;;34.25;15.30;;;-0.50;90.50;;;;;;4982261;28;20045;-63
2022/03/03 03:44:59;;;;;;;31.02;15.73;;;-0.60;90.30;;;;;;4978670;28;20030;-63
2022/03/03 03:47:25;;;;;;;35.60;15.15;;;-0.80;90.30;;;;;;4979314;28;20038;-63
2022/03/03 03:49:51;;;;;;;31.35;16.15;;;-0.90;90.90;;;;;;4974164;28;20039;-63
2022/03/03 03:52:16;;;;;;;35.28;16.38;;;-0.90;91.20;;;;;;4982056;28;20758;-63
2022/03/03 03:54:42;;;;;;;31.30;15.55;;;-0.90;91.40;;;;;;4979612;28;20030;-63
2022/03/03 03:57:08;;;;;;;40.20;17.65;;;-1.00;91.60;;;;;;4978426;28;20038;-63
2022/03/03 03:59:34;;;;;;;36.58;16.23;;;-1.00;91.80;;;;;;4975793;28;20137;-63
2022/03/03 04:02:00;;;;;;;36.35;16.02;;;-1.10;91.50;;;;;;4978263;28;20066;-62
2022/03/03 04:04:25;;;;;;;38.97;16.63;;;-1.20;90.80;;;;;;4981893;28;20788;-63
2022/03/03 04:06:51;;;;;;;32.55;15.10;;;-1.30;91.00;;;;;;4979583;28;20035;-63
2022/03/03 04:09:17;;;;;;;35.10;16.00;;;-1.30;91.30;;;;;;4977141;28;20026;-63
2022/03/03 04:11:42;;;;;;;33.25;15.48;;;-1.40;91.50;;;;;;4973058;28;20450;-62
2022/03/03 04:14:08;;;;;;;33.03;16.40;;;-1.40;91.90;;;;;;4982107;28;20030;-63
2022/03/03 04:16:35;;;;;;;34.42;16.70;;;-1.40;92.00;;;;;;4979274;28;20497;-62
2022/03/03 04:19:01;;;;;;;37.05;17.33;;;-1.30;92.00;;;;;;4977113;28;20046;-62
2022/03/03 04:21:26;;;;;;;83.60;29.80;;;-1.30;92.10;;;;;;4975505;28;20030;-62
2022/03/03 04:23:53;;;;;;;55.75;22.85;;;-1.30;92.30;;;;;;4978761;28;20064;-63
2022/03/03 04:26:18;;;;;;;44.22;19.88;;;-1.30;92.40;;;;;;4982810;28;20095;-63
2022/03/03 04:28:44;;;;;;;77.10;27.70;;;-1.30;92.40;;;;;;4979265;28;20046;-63
2022/03/03 04:31:10;;;;;;;98.10;35.13;;;-1.30;92.50;;;;;;4978092;28;20038;-62
2022/03/03 04:33:37;;;;;;;103.18;35.38;;;-1.30;92.50;;;;;;4981188;28;20035;-62
2022/03/03 04:36:04;;;;;;;98.22;35.10;;;-1.30;92.80;;;;;;4981316;28;20483;-62
2022/03/03 04:38:29;;;;;;;59.20;22.92;;;-1.20;92.90;;;;;;4982085;28;20035;-62
2022/03/03 04:40:55;;;;;;;37.72;18.08;;;-1.20;92.90;;;;;;4976074;28;20038;-62
2022/03/03 04:43:21;;;;;;;31.63;15.13;;;-1.20;92.90;;;;;;4975469;28;20038;-62
2022/03/03 04:45:47;;;;;;;37.05;16.88;;;-1.20;92.90;;;;;;4978277;28;20034;-62
2022/03/03 04:48:12;;;;;;;32.75;16.70;;;-1.20;92.90;;;;;;4980085;28;20872;-62
2022/03/03 04:50:38;;;;;;;33.42;15.82;;;-1.20;93.00;;;;;;4977126;28;20173;-62
2022/03/03 04:53:04;;;;;;;33.92;15.32;;;-1.20;93.10;;;;;;4976294;28;20041;-62
2022/03/03 04:55:30;;;;;;;34.63;16.88;;;-1.20;93.20;;;;;;4981293;28;20085;-62
2022/03/03 04:57:55;;;;;;;36.63;16.40;;;-1.20;93.30;;;;;;4980842;28;20043;-62
2022/03/03 05:00:21;;;;;;;36.97;16.60;;;-1.20;93.40;;;;;;4980648;28;20026;-62
2022/03/03 05:02:47;;;;;;;38.00;17.15;;;-1.20;93.50;;;;;;4978374;28;20042;-64
2022/03/03 05:05:13;;;;;;;33.92;16.00;;;-1.30;93.30;;;;;;4975395;28;20038;-62
2022/03/03 05:07:39;;;;;;;35.10;16.90;;;-1.30;93.20;;;;;;4981154;28;20038;-63
2022/03/03 05:10:05;;;;;;;37.97;16.38;;;-1.30;93.20;;;;;;4984289;28;20818;-63
2022/03/03 05:12:31;;;;;;;34.42;16.20;;;-1.40;93.10;;;;;;4976994;28;20475;-63
2022/03/03 05:14:57;;;;;;;36.38;16.25;;;-1.40;93.10;;;;;;4977151;28;20061;-63
2022/03/03 05:17:23;;;;;;;37.42;16.85;;;-1.40;93.20;;;;;;4978468;28;20396;-63
2022/03/03 05:19:49;;;;;;;33.00;15.10;;;-1.50;93.00;;;;;;4979301;28;20074;-63
2022/03/03 05:22:14;;;;;;;32.78;15.73;;;-1.50;92.90;;;;;;4978832;28;20173;-62
2022/03/03 05:24:40;;;;;;;37.35;17.13;;;-1.50;92.90;;;;;;4979541;28;20759;-63
2022/03/03 05:27:06;;;;;;;39.22;16.75;;;-1.60;92.90;;;;;;4974872;28;20030;-63
2022/03/03 05:29:32;;;;;;;30.98;14.90;;;-1.60;92.90;;;;;;4980763;28;20746;-63
2022/03/03 05:31:58;;;;;;;32.65;15.80;;;-1.70;92.90;;;;;;4979154;28;20038;-63
2022/03/03 05:34:26;;;;;;;30.73;14.43;;;-1.70;92.90;;;;;;4979663;28;20026;-63
2022/03/03 05:36:51;;;;;;;25.65;13.88;;;-1.70;92.90;;;;;;4976887;28;20628;-63
2022/03/03 05:39:17;;;;;;;28.45;15.25;;;-1.70;92.90;;;;;;4980733;28;20066;-63
2022/03/03 05:41:43;;;;;;;27.92;13.77;;;-1.70;92.90;;;;;;4981041;28;20117;-63
2022/03/03 05:44:12;;;;;;;29.95;15.05;;;-1.70;92.90;;;;;;4981736;28;20401;-63
2022/03/03 05:46:40;;;;;;;30.30;15.32;;;-1.70;92.80;;;;;;4973976;28;20038;-63
2022/03/03 05:49:07;;;;;;;30.67;14.20;;;-1.70;92.80;;;;;;4974307;28;20112;-63
2022/03/03 05:51:33;;;;;;;30.27;14.23;;;-1.80;92.80;;;;;;4980912;28;20130;-63
2022/03/03 05:53:58;;;;;;;28.75;13.82;;;-1.70;92.80;;;;;;4977733;28;20466;-63
2022/03/03 05:56:25;;;;;;;27.70;12.60;;;-1.70;92.70;;;;;;4973097;28;20039;-63
2022/03/03 05:58:53;;;;;;;29.05;14.30;;;-1.80;92.80;;;;;;4979786;28;20062;-63
2022/03/03 06:01:18;;;;;;;30.88;14.63;;;-1.80;92.60;;;;;;4978245;28;20041;-63
2022/03/03 06:03:47;;;;;;;32.05;14.23;;;-1.80;92.00;;;;;;4979993;28;20038;-63
2022/03/03 06:06:17;;;;;;;33.15;14.20;;;-1.80;91.90;;;;;;4977806;28;20060;-63
2022/03/03 06:09:03;;;;;;;33.17;14.25;;;-1.80;92.00;;;;;;4979465;28;20035;-63
2022/03/03 06:11:30;;;;;;;33.17;14.45;;;-1.90;92.20;;;;;;4979868;28;20101;-63
2022/03/03 06:14:07;;;;;;;29.83;14.63;;;-1.80;92.20;;;;;;4980244;28;20070;-63
2022/03/03 06:16:35;;;;;;;31.10;15.32;;;-1.80;92.10;;;;;;4975314;28;20119;-62
2022/03/03 06:19:02;;;;;;;30.33;16.08;;;-1.80;92.10;;;;;;4974321;28;20035;-63
2022/03/03 06:21:28;;;;;;;35.70;14.98;;;-1.70;92.10;;;;;;4979510;28;20491;-63
2022/03/03 06:23:53;;;;;;;31.58;16.05;;;-1.70;92.00;;;;;;4978660;28;20129;-63
2022/03/03 06:26:19;;;;;;;36.70;18.02;;;-1.60;91.90;;;;;;4978483;28;20128;-63
2022/03/03 06:28:46;;;;;;;32.67;15.30;;;-1.60;91.90;;;;;;4974545;28;20062;-63
2022/03/03 06:31:13;;;;;;;32.67;16.25;;;-1.50;91.70;;;;;;4978471;28;20038;-63
2022/03/03 06:33:40;;;;;;;35.53;16.55;;;-1.40;91.60;;;;;;4976970;28;20372;-63
2022/03/03 06:36:07;;;;;;;30.80;15.10;;;-1.30;91.60;;;;;;4982612;28;20069;-63
2022/03/03 06:38:34;;;;;;;36.47;17.35;;;-1.20;91.60;;;;;;4981927;28;20455;-63
2022/03/03 06:41:01;;;;;;;29.60;15.23;;;-1.10;91.50;;;;;;4964874;28;20141;-63
2022/03/03 06:43:29;;;;;;;35.92;15.55;;;-1.00;91.40;;;;;;4977520;28;20041;-63
2022/03/03 06:45:56;;;;;;;30.10;14.05;;;-0.80;91.50;;;;;;4983144;28;20042;-63
2022/03/03 06:48:22;;;;;;;34.83;15.60;;;-0.70;91.40;;;;;;4982955;28;20038;-63
2022/03/03 06:50:51;;;;;;;30.85;14.75;;;-0.60;91.60;;;;;;4982631;28;20057;-63
2022/03/03 06:53:24;;;;;;;30.45;14.98;;;-0.50;91.70;;;;;;4981210;28;20038;-63
2022/03/03 06:55:53;;;;;;;31.33;14.88;;;-0.40;91.60;;;;;;4981690;28;20141;-63
2022/03/03 06:58:24;;;;;;;32.72;16.08;;;-0.30;91.40;;;;;;4982375;28;20442;-63
2022/03/03 07:00:52;;;;;;;34.00;16.23;;;-0.20;91.30;;;;;;4982909;28;20038;-63
2022/03/03 07:03:21;;;;;;;34.72;16.30;;;-0.10;91.10;;;;;;4981451;28;20038;-63
2022/03/03 07:05:47;;;;;;;33.22;15.20;;;0.10;90.80;;;;;;4977745;28;20038;-63
2022/03/03 07:08:14;;;;;;;28.10;13.57;;;0.20;90.70;;;;;;4983440;28;20869;-62
2022/03/03 07:10:39;;;;;;;32.28;15.50;;;0.30;90.40;;;;;;4983477;28;20052;-63
2022/03/03 07:13:05;;;;;;;35.60;16.45;;;0.40;90.20;;;;;;4981815;28;20758;-63
2022/03/03 07:15:34;;;;;;;34.20;15.65;;;0.60;89.80;;;;;;4980357;28;20081;-63
2022/03/03 07:18:11;;;;;;;34.63;15.48;;;0.60;89.40;;;;;;4968650;28;20034;-62
2022/03/03 07:21:02;;;;;;;37.63;16.83;;;0.80;89.40;;;;;;4980431;28;20770;-63
2022/03/03 07:23:36;;;;;;;29.67;14.95;;;0.90;89.00;;;;;;4978085;28;20057;-63
2022/03/03 07:26:04;;;;;;;33.95;15.95;;;1.10;88.20;;;;;;4980677;28;20066;-64
2022/03/03 07:28:31;;;;;;;34.22;16.25;;;1.10;87.90;;;;;;4983959;28;20042;-64
2022/03/03 07:31:01;;;;;;;33.50;16.83;;;1.30;87.80;;;;;;4982521;28;20046;-63
2022/03/03 07:33:46;;;;;;;30.33;16.00;;;1.30;87.20;;;;;;4976994;28;20042;-65
2022/03/03 07:36:17;;;;;;;37.28;17.88;;;1.50;86.90;;;;;;4979163;28;20038;-63
2022/03/03 07:38:54;;;;;;;33.40;15.93;;;1.60;85.90;;;;;;4980628;28;20042;-65
2022/03/03 07:41:21;;;;;;;29.52;13.95;;;1.60;85.00;;;;;;4982738;28;20446;-65
2022/03/03 07:43:48;;;;;;;32.75;16.15;;;1.70;84.50;;;;;;4976499;28;20046;-65
2022/03/03 07:46:14;;;;;;;33.60;17.77;;;1.90;84.10;;;;;;4977762;28;20034;-64
2022/03/03 07:48:46;;;;;;;32.63;16.65;;;2.10;84.20;;;;;;4980253;28;20455;-64
2022/03/03 07:51:13;;;;;;;34.78;16.45;;;2.50;83.40;;;;;;4976764;28;20049;-64
2022/03/03 07:53:38;;;;;;;34.10;15.25;;;3.40;80.60;;;;;;4977637;28;20493;-64
2022/03/03 07:56:05;;;;;;;27.33;14.30;;;4.60;74.70;;;;;;4976547;28;20030;-64
2022/03/03 07:58:41;;;;;;;29.17;14.93;;;6.40;68.70;;;;;;4973034;28;20073;-64
2022/03/03 08:01:09;;;;;;;26.75;15.18;;;9.00;59.10;;;;;;4984149;28;20027;-64
2022/03/03 08:03:37;;;;;;;26.90;14.95;;;11.30;50.00;;;;;;4973256;28;20137;-64
2022/03/03 08:06:03;;;;;;;28.25;15.23;;;13.00;44.50;;;;;;4978843;28;20561;-63
2022/03/03 08:08:30;;;;;;;26.58;14.63;;;13.50;43.40;;;;;;4975467;28;20065;-64
2022/03/03 08:11:05;;;;;;;30.13;15.68;;;13.10;43.50;;;;;;4971396;28;20047;-65
2022/03/03 08:13:31;;;;;;;29.63;16.42;;;12.30;44.90;;;;;;4978164;28;20038;-64
2022/03/03 08:15:57;;;;;;;27.55;15.77;;;11.70;45.70;;;;;;4977419;28;20035;-64
2022/03/03 08:18:32;;;;;;;29.77;15.75;;;11.20;47.30;;;;;;4980894;28;20053;-67
2022/03/03 08:21:02;;;;;;;28.98;16.42;;;10.40;47.70;;;;;;4977069;28;20038;-72
2022/03/03 08:23:29;;;;;;;31.55;17.50;;;9.20;49.80;;;;;;4977461;28;20057;-64
2022/03/03 08:25:56;;;;;;;36.92;17.95;;;8.10;53.30;;;;;;4978613;28;20038;-63
2022/03/03 08:28:24;;;;;;;37.15;19.92;;;7.20;55.60;;;;;;4982923;28;20038;-63
2022/03/03 08:30:55;;;;;;;34.53;17.08;;;6.50;58.20;;;;;;4976806;28;20388;-64
2022/03/03 08:33:41;;;;;;;29.05;16.15;;;5.90;59.10;;;;;;4978525;28;20045;-63
2022/03/03 08:36:31;;;;;;;32.45;16.00;;;5.40;62.10;;;;;;4978751;28;20026;-62
2022/03/03 08:39:03;;;;;;;57.72;27.52;;;5.10;62.90;;;;;;4977921;28;20062;-63
2022/03/03 08:41:32;;;;;;;35.20;18.05;;;4.80;65.30;;;;;;4960211;28;20419;-63
2022/03/03 08:44:01;;;;;;;38.10;17.08;;;4.60;66.10;;;;;;4975464;28;20037;-60
2022/03/03 08:46:32;;;;;;;31.98;15.32;;;4.40;66.90;;;;;;4983514;28;20039;-62
2022/03/03 08:49:01;;;;;;;30.92;15.20;;;4.20;68.20;;;;;;4976951;28;20038;-62
2022/03/03 08:51:27;;;;;;;34.65;15.90;;;4.10;68.90;;;;;;4977252;28;20046;-63
2022/03/03 08:53:53;;;;;;;34.75;16.05;;;4.10;69.30;;;;;;4975738;28;20710;-63
2022/03/03 08:56:19;;;;;;;36.08;15.00;;;4.00;70.00;;;;;;4978057;28;20035;-65
2022/03/03 08:58:45;;;;;;;30.58;15.20;;;3.90;71.00;;;;;;4976246;28;20117;-64
2022/03/03 09:01:11;;;;;;;33.92;15.25;;;3.80;70.50;;;;;;4976811;28;20029;-62
2022/03/03 09:03:38;;;;;;;33.20;14.85;;;3.60;72.50;;;;;;4978186;28;20041;-62
2022/03/03 09:06:04;;;;;;;31.25;14.00;;;3.50;73.70;;;;;;4975708;28;20035;-62
2022/03/03 09:08:29;;;;;;;26.80;12.35;;;3.40;73.70;;;;;;4981406;28;20798;-62
2022/03/03 09:10:55;;;;;;;27.98;11.80;;;3.40;74.10;;;;;;4979615;28;20172;-63
2022/03/03 09:13:21;;;;;;;26.92;12.32;;;3.50;74.50;;;;;;4981019;28;20073;-62
2022/03/03 09:15:47;;;;;;;21.08;11.48;;;3.50;74.80;;;;;;4977322;28;20034;-62
2022/03/03 09:18:13;;;;;;;26.25;12.55;;;3.40;76.20;;;;;;4983974;28;20056;-62
2022/03/03 09:20:39;;;;;;;25.63;11.88;;;3.50;76.40;;;;;;4977685;28;20022;-63
2022/03/03 09:23:04;;;;;;;28.55;13.20;;;3.50;76.50;;;;;;4976424;28;20019;-62
2022/03/03 09:25:30;;;;;;;25.92;12.25;;;3.60;76.10;;;;;;4974503;28;20037;-62
2022/03/03 09:27:56;;;;;;;26.48;11.90;;;3.60;76.50;;;;;;4975650;28;20073;-61
2022/03/03 09:30:22;;;;;;;22.35;10.50;;;3.50;76.20;;;;;;4980304;28;20115;-61
2022/03/03 09:32:49;;;;;;;21.63;10.75;;;3.50;76.60;;;;;;4975462;28;20757;-63
2022/03/03 09:35:16;;;;;;;23.45;10.70;;;3.50;76.90;;;;;;4973979;28;20050;-63
2022/03/03 09:37:42;;;;;;;22.25;11.30;;;3.50;76.70;;;;;;4977192;28;20030;-63
2022/03/03 09:40:09;;;;;;;21.17;10.80;;;3.60;77.30;;;;;;4976718;28;20084;-62
2022/03/03 09:42:35;;;;;;;20.88;10.45;;;3.60;77.60;;;;;;4978745;28;20382;-63
2022/03/03 09:45:02;;;;;;;21.42;10.63;;;3.70;77.60;;;;;;4973674;28;20042;-63
2022/03/03 09:47:28;;;;;;;22.70;10.77;;;3.80;76.00;;;;;;4975751;28;20882;-63
2022/03/03 09:49:54;;;;;;;21.67;9.23;;;3.80;76.60;;;;;;4974854;28;20046;-63
2022/03/03 09:52:20;;;;;;;24.25;10.45;;;3.80;76.50;;;;;;4967449;28;20030;-63
2022/03/03 09:54:51;;;;;;;24.95;10.73;;;3.80;76.90;;;;;;4976235;28;20031;-63
2022/03/03 09:57:17;;;;;;;21.80;9.55;;;3.80;76.40;;;;;;4973856;28;20038;-63
2022/03/03 09:59:44;;;;;;;19.27;9.48;;;3.90;76.50;;;;;;4976123;28;20244;-63
2022/03/03 10:02:11;;;;;;;23.52;10.43;;;3.80;76.30;;;;;;4979844;28;20042;-63
2022/03/03 10:04:37;;;;;;;24.98;11.05;;;3.80;76.50;;;;;;4976178;28;20053;-63
2022/03/03 10:07:07;;;;;;;26.67;10.98;;;3.80;77.20;;;;;;4973029;28;20130;-63
2022/03/03 10:09:59;;;;;;;27.85;11.93;;;3.80;77.60;;;;;;4977765;28;20046;-63
2022/03/03 10:12:27;;;;;;;29.25;11.63;;;3.90;78.00;;;;;;4977291;28;20874;-63
2022/03/03 10:14:58;;;;;;;26.10;11.68;;;4.00;77.20;;;;;;4977106;28;20723;-63
2022/03/03 10:17:35;;;;;;;28.42;12.20;;;4.00;77.60;;;;;;4971539;28;20034;-63
2022/03/03 10:20:03;;;;;;;30.77;13.48;;;4.10;77.60;;;;;;4972743;28;20069;-63
2022/03/03 10:22:43;;;;;;;28.08;13.02;;;4.30;77.40;;;;;;4976443;28;20030;-61
2022/03/03 10:25:10;;;;;;;29.30;12.10;;;4.30;76.80;;;;;;4976357;28;20028;-63
2022/03/03 10:27:36;;;;;;;26.05;12.20;;;4.40;76.60;;;;;;4972742;28;20092;-62
2022/03/03 10:30:05;;;;;;;29.33;12.80;;;4.40;75.80;;;;;;4972646;28;20037;-68
2022/03/03 10:32:31;;;;;;;28.88;12.73;;;4.40;76.30;;;;;;4979557;28;20105;-63
2022/03/03 10:35:24;;;;;;;27.05;12.35;;;4.40;75.70;;;;;;4977919;28;20034;-64
2022/03/03 10:37:51;;;;;;;26.95;12.05;;;4.50;77.00;;;;;;4978056;28;20042;-64
2022/03/03 10:40:17;;;;;;;24.98;10.95;;;4.60;76.10;;;;;;4977847;28;20037;-63
2022/03/03 10:42:50;;;;;;;23.45;11.15;;;4.70;75.50;;;;;;4973241;28;20064;-64
2022/03/03 10:45:19;;;;;;;35.83;15.93;;;4.80;74.30;;;;;;4978965;28;20065;-63
2022/03/03 10:48:00;;;;;;;30.85;13.52;;;4.80;73.90;;;;;;4959989;28;20089;-63
2022/03/03 10:50:26;;;;;;;24.65;11.02;;;4.70;75.20;;;;;;4978046;28;20042;-64
2022/03/03 10:52:52;;;;;;;23.42;11.75;;;4.80;75.40;;;;;;4959890;28;20045;-64
2022/03/03 10:55:18;;;;;;;23.75;11.55;;;4.90;74.40;;;;;;4979742;28;20593;-64
2022/03/03 10:57:59;;;;;;;22.70;10.85;;;5.00;74.00;;;;;;4975730;28;20179;-67
2022/03/03 11:00:30;;;;;;;23.42;11.73;;;5.10;73.70;;;;;;4969409;28;20038;-67
2022/03/03 11:02:58;;;;;;;23.35;10.85;;;5.20;72.20;;;;;;4980795;28;20034;-66
2022/03/03 11:05:26;;;;;;;25.58;12.27;;;5.20;72.30;;;;;;4977039;28;20117;-67
2022/03/03 11:07:56;;;;;;;26.42;12.13;;;5.10;72.30;;;;;;4975927;28;20046;-69
2022/03/03 11:10:29;;;;;;;27.10;11.65;;;4.90;72.50;;;;;;4979266;28;20030;-68
2022/03/03 11:12:55;;;;;;;21.60;11.48;;;4.80;73.20;;;;;;4972500;28;20047;-67
2022/03/03 11:15:24;;;;;;;22.30;11.25;;;4.80;73.40;;;;;;4972577;28;20850;-68
2022/03/03 11:17:51;;;;;;;17.92;9.30;;;5.00;73.30;;;;;;4978896;28;20478;-68
2022/03/03 11:20:18;;;;;;;22.50;11.07;;;5.10;72.60;;;;;;4964833;28;20041;-68
2022/03/03 11:22:45;;;;;;;21.02;9.75;;;5.00;71.50;;;;;;4978267;28;20217;-68
2022/03/03 11:25:24;;;;;;;21.13;10.30;;;5.00;71.60;;;;;;4983862;28;20823;-68
2022/03/03 11:28:03;;;;;;;22.45;10.38;;;5.10;72.20;;;;;;4981174;28;20521;-68
2022/03/03 11:30:30;;;;;;;21.70;9.57;;;5.40;71.20;;;;;;4981743;28;20093;-68
2022/03/03 11:33:24;;;;;;;18.52;9.90;;;5.50;70.20;;;;;;4982166;28;20038;-68
2022/03/03 11:35:53;;;;;;;18.98;10.05;;;5.60;70.40;;;;;;4981329;28;20117;-69
2022/03/03 11:38:20;;;;;;;18.67;9.57;;;5.60;69.50;;;;;;4986811;28;20530;-67
2022/03/03 11:40:54;;;;;;;20.85;10.30;;;5.60;69.10;;;;;;4982166;28;20557;-67
2022/03/03 11:43:20;;;;;;;18.20;9.07;;;5.70;68.70;;;;;;4981579;28;20038;-67
2022/03/03 11:45:55;;;;;;;19.40;10.52;;;5.80;69.10;;;;;;4977329;28;20046;-68
2022/03/03 11:48:23;;;;;;;19.73;9.60;;;6.00;69.40;;;;;;4984113;28;20123;-68
2022/03/03 11:50:51;;;;;;;18.00;9.75;;;6.10;67.10;;;;;;4981122;28;20042;-67
2022/03/03 11:53:23;;;;;;;16.40;8.73;;;6.10;67.50;;;;;;4979571;28;20038;-67
2022/03/03 11:56:01;;;;;;;18.98;9.52;;;6.20;67.10;;;;;;4977905;28;20146;-67
2022/03/03 11:58:31;;;;;;;19.90;10.38;;;6.10;66.90;;;;;;4982111;28;20030;-67
2022/03/03 12:01:01;;;;;;;25.67;11.27;;;6.10;66.50;;;;;;4983065;28;20030;-68
2022/03/03 12:03:31;;;;;;;19.70;10.10;;;5.90;65.90;;;;;;4975609;28;20557;-68
2022/03/03 12:06:11;;;;;;;22.08;10.40;;;5.90;66.60;;;;;;4981637;28;20816;-68
2022/03/03 12:08:41;;;;;;;17.85;8.90;;;5.90;66.50;;;;;;4977003;28;20644;-67
2022/03/03 12:11:17;;;;;;;21.48;10.25;;;6.00;66.60;;;;;;4986283;28;20084;-67
2022/03/03 12:13:50;;;;;;;19.98;9.73;;;6.10;66.50;;;;;;4983463;28;20042;-68
2022/03/03 12:16:34;;;;;;;20.40;9.88;;;6.20;66.00;;;;;;4981684;28;20564;-68
2022/03/03 12:19:00;;;;;;;18.95;10.15;;;6.30;65.90;;;;;;4982907;28;20046;-67
2022/03/03 12:21:26;;;;;;;16.85;9.07;;;6.40;65.30;;;;;;4982310;28;20034;-69
2022/03/03 12:24:14;;;;;;;18.88;10.15;;;6.50;64.90;;;;;;4980078;28;20034;-68
2022/03/03 12:27:01;;;;;;;17.20;9.55;;;6.70;64.80;;;;;;4957794;28;20027;-68
2022/03/03 12:29:39;;;;;;;16.73;9.27;;;6.80;64.70;;;;;;4979971;28;20653;-68
2022/03/03 12:32:26;;;;;;;21.15;10.00;;;6.90;64.30;;;;;;4977957;28;20035;-68
2022/03/03 12:34:55;;;;;;;;;;;6.90;64.20;;;;;;4977349;28;20737;-68
2022/03/03 12:37:21;;;;;;;18.20;9.00;;;6.80;65.10;;;;;;4966490;28;20647;-69